Brendelen — EINR — position and weather

sailwx.info

Track history (hours):
 
Tides and Currents Weather Stations Pressure Air Temp Water Temp Dewpoint Dewpoint Depression Visibility Wind Speed Wind Dir Waves Ship Positions

Brendelen

Last reported at 2015-Feb-26 06:33 UTC. Time now 2015-Feb-27 13:15 UTC.
Position N 53°53' W 010°27'.

Length 64 m; draft 7.8 m.

Type: Fishing. MMSI: 250512000.

Date/timePositionNaut miles runAvg speedWind from/ knotsBaromVisibWave heightAir tempDewpointWater temp
2015-Feb-26 06:33N 53°53' W 010°27'1310.7
2015-Feb-26 05:23N 54°06' W 010°24'18 9.6
2015-Feb-26 03:33N 54°20' W 010°06'5110.2
2015-Feb-25 22:31N 54°34' W 008°41'9 9.4
2015-Feb-25 21:33N 54°37' W 008°26'1 0.8
2015-Feb-25 20:33N 54°38' W 008°26'0 0.0
2015-Feb-25 19:33N 54°38' W 008°26'0 0.0
2015-Feb-25 18:33N 54°38' W 008°26'0 0.0
2015-Feb-25 17:33N 54°38' W 008°26'0 0.0
2015-Feb-25 16:33N 54°38' W 008°26'0 0.0
2015-Feb-25 15:33N 54°38' W 008°26'0 0.0
2015-Feb-25 14:33N 54°38' W 008°26'0 0.0
2015-Feb-25 13:33N 54°38' W 008°26'0 0.0
2015-Feb-25 12:33N 54°38' W 008°26'0 0.0
2015-Feb-25 11:33N 54°38' W 008°26'0 0.0
2015-Feb-25 10:33N 54°38' W 008°26'0 0.0
2015-Feb-25 09:33N 54°38' W 008°26'0 0.0
2015-Feb-25 08:33N 54°38' W 008°26'0 0.0
2015-Feb-25 07:33N 54°38' W 008°26'0 0.0
2015-Feb-25 06:33N 54°38' W 008°26'0 0.0
2015-Feb-25 05:33N 54°38' W 008°26'0 0.0
2015-Feb-25 04:33N 54°38' W 008°26'0 0.0
2015-Feb-25 03:33N 54°38' W 008°26'0 0.0
2015-Feb-25 02:33N 54°38' W 008°26'0 0.0
2015-Feb-25 01:33N 54°38' W 008°26'0 0.0
2015-Feb-25 00:33N 54°38' W 008°26'0 0.0
2015-Feb-24 23:33N 54°38' W 008°26'0 0.0
2015-Feb-24 22:33N 54°38' W 008°26'0 0.0
2015-Feb-24 21:33N 54°38' W 008°26'0 0.0
2015-Feb-24 20:33N 54°38' W 008°26'0 0.0
2015-Feb-24 19:33N 54°38' W 008°26'0 0.0
2015-Feb-24 18:33N 54°38' W 008°26'0 0.0
2015-Feb-24 17:33N 54°38' W 008°26'0 0.0
2015-Feb-24 16:33N 54°38' W 008°26'0 0.0
2015-Feb-24 15:33N 54°38' W 008°26'0 0.0
2015-Feb-24 14:33N 54°38' W 008°26'0 0.0
2015-Feb-24 13:33N 54°38' W 008°26'0 0.0
2015-Feb-24 12:33N 54°38' W 008°26'0 0.0
2015-Feb-24 11:33N 54°38' W 008°26'0 0.0
2015-Feb-24 10:33N 54°38' W 008°26'0 0.0
2015-Feb-24 09:33N 54°38' W 008°26'0 0.0
2015-Feb-24 08:33N 54°38' W 008°26'0 0.0
2015-Feb-24 07:33N 54°38' W 008°26'0 0.0
2015-Feb-24 06:33N 54°38' W 008°26'0 0.0
2015-Feb-24 05:33N 54°38' W 008°26'0 0.0
2015-Feb-24 04:33N 54°38' W 008°26'0 0.0
2015-Feb-24 03:33N 54°38' W 008°26'0 0.0
2015-Feb-24 02:33N 54°38' W 008°26'0 0.0
2015-Feb-24 01:33N 54°38' W 008°26'0 0.0
2015-Feb-24 00:33N 54°38' W 008°26'0 0.0
2015-Feb-23 23:33N 54°38' W 008°26'0 0.0
2015-Feb-23 22:33N 54°38' W 008°26'0 0.0
2015-Feb-23 21:33N 54°38' W 008°26'0 0.0
2015-Feb-23 20:33N 54°38' W 008°26'0 0.0
2015-Feb-23 19:33N 54°38' W 008°26'0 0.0
2015-Feb-23 18:33N 54°38' W 008°26'0 0.0
2015-Feb-23 17:33N 54°38' W 008°26'0 0.0
2015-Feb-23 16:33N 54°38' W 008°26'0 0.0
2015-Feb-23 15:33N 54°38' W 008°26'0 0.0
2015-Feb-23 14:33N 54°38' W 008°26'0 0.0
2015-Feb-23 13:33N 54°38' W 008°26'0 0.0
2015-Feb-23 12:33N 54°38' W 008°26'0 0.0
2015-Feb-23 11:33N 54°38' W 008°26'0 0.0
2015-Feb-23 10:33N 54°38' W 008°26'0 0.0
2015-Feb-23 09:33N 54°38' W 008°26'0 0.0
2015-Feb-23 08:33N 54°38' W 008°26'0 0.0
2015-Feb-23 07:33N 54°38' W 008°26'5 4.6
2015-Feb-23 06:33N 54°35' W 008°32'  
2015-Feb-17 23:05N 54°36' W 008°38'510.4
2015-Feb-17 22:34N 54°36' W 008°29'2 2.4
2015-Feb-17 21:33N 54°38' W 008°26'0 0.1
2015-Feb-17 20:33N 54°38' W 008°26'0 0.0
2015-Feb-17 19:34N 54°38' W 008°26'0 0.0
2015-Feb-17 17:33N 54°38' W 008°26'0 0.0
2015-Feb-17 16:33N 54°38' W 008°26'0 0.0
2015-Feb-17 15:34N 54°38' W 008°26'0 0.0
2015-Feb-17 14:33N 54°38' W 008°26'0 0.0
2015-Feb-17 13:33N 54°38' W 008°26'0 0.0
2015-Feb-17 12:33N 54°38' W 008°26'0 0.0
2015-Feb-17 11:34N 54°38' W 008°26'0 0.0
2015-Feb-17 10:33N 54°38' W 008°26'0 0.0
2015-Feb-17 09:33N 54°38' W 008°26'0 0.0
2015-Feb-17 08:34N 54°38' W 008°26'0 0.0
2015-Feb-17 07:33N 54°38' W 008°26'0 0.0
2015-Feb-17 06:33N 54°38' W 008°26'0 0.0
2015-Feb-17 05:33N 54°38' W 008°26'0 0.0
2015-Feb-17 04:33N 54°38' W 008°26'0 0.0
2015-Feb-17 03:33N 54°38' W 008°26'0 0.0
2015-Feb-17 02:33N 54°38' W 008°26'0 0.0
2015-Feb-17 01:33N 54°38' W 008°26'0 0.0
2015-Feb-17 00:33N 54°38' W 008°26'0 0.0
2015-Feb-16 23:33N 54°38' W 008°26'0 0.0
2015-Feb-16 22:33N 54°38' W 008°26'0 0.0
2015-Feb-16 21:34N 54°38' W 008°26'0 0.0
2015-Feb-16 20:33N 54°38' W 008°26'0 0.0
2015-Feb-16 19:33N 54°38' W 008°26'0 0.0
2015-Feb-16 18:34N 54°38' W 008°26'0 0.0
2015-Feb-16 17:34N 54°38' W 008°26'0 0.0
2015-Feb-16 16:34N 54°38' W 008°26'0 0.0
2015-Feb-16 15:33N 54°38' W 008°26'0 0.0
2015-Feb-16 14:34N 54°38' W 008°26'0 0.0
2015-Feb-16 13:33N 54°38' W 008°26'0 0.0
2015-Feb-16 12:33N 54°38' W 008°26'0 0.0
2015-Feb-16 11:33N 54°38' W 008°26'0 0.0
2015-Feb-16 10:34N 54°38' W 008°26'0 0.0
2015-Feb-16 09:34N 54°38' W 008°26'0 0.0
2015-Feb-16 08:33N 54°38' W 008°26'0 0.1
2015-Feb-16 07:33N 54°38' W 008°26'6 5.8
2015-Feb-16 06:33N 54°34' W 008°35'  
Track history (hours):
 
Tides and Currents Weather Stations Pressure Air Temp Water Temp Dewpoint Dewpoint Depression Visibility Wind Speed Wind Dir Waves Ship Positions

Brendelen

Last reported at 2015-Feb-26 06:33 UTC. Time now 2015-Feb-27 13:15 UTC.
Position N 53°53' W 010°27'.

Length 64 m; draft 7.8 m.

Type: Fishing. MMSI: 250512000.

Date/timePositionNaut miles runAvg speedWind from/ knotsBaromVisibWave heightAir tempDewpointWater temp
2015-Feb-26 06:33N 53°53' W 010°27'1310.7
2015-Feb-26 05:23N 54°06' W 010°24'18 9.6
2015-Feb-26 03:33N 54°20' W 010°06'5110.2
2015-Feb-25 22:31N 54°34' W 008°41'9 9.4
2015-Feb-25 21:33N 54°37' W 008°26'1 0.8
2015-Feb-25 20:33N 54°38' W 008°26'0 0.0
2015-Feb-25 19:33N 54°38' W 008°26'0 0.0
2015-Feb-25 18:33N 54°38' W 008°26'0 0.0
2015-Feb-25 17:33N 54°38' W 008°26'0 0.0
2015-Feb-25 16:33N 54°38' W 008°26'0 0.0
2015-Feb-25 15:33N 54°38' W 008°26'0 0.0
2015-Feb-25 14:33N 54°38' W 008°26'0 0.0
2015-Feb-25 13:33N 54°38' W 008°26'0 0.0
2015-Feb-25 12:33N 54°38' W 008°26'0 0.0
2015-Feb-25 11:33N 54°38' W 008°26'0 0.0
2015-Feb-25 10:33N 54°38' W 008°26'0 0.0
2015-Feb-25 09:33N 54°38' W 008°26'0 0.0
2015-Feb-25 08:33N 54°38' W 008°26'0 0.0
2015-Feb-25 07:33N 54°38' W 008°26'0 0.0
2015-Feb-25 06:33N 54°38' W 008°26'0 0.0
2015-Feb-25 05:33N 54°38' W 008°26'0 0.0
2015-Feb-25 04:33N 54°38' W 008°26'0 0.0
2015-Feb-25 03:33N 54°38' W 008°26'0 0.0
2015-Feb-25 02:33N 54°38' W 008°26'0 0.0
2015-Feb-25 01:33N 54°38' W 008°26'0 0.0
2015-Feb-25 00:33N 54°38' W 008°26'0 0.0
2015-Feb-24 23:33N 54°38' W 008°26'0 0.0
2015-Feb-24 22:33N 54°38' W 008°26'0 0.0
2015-Feb-24 21:33N 54°38' W 008°26'0 0.0
2015-Feb-24 20:33N 54°38' W 008°26'0 0.0
2015-Feb-24 19:33N 54°38' W 008°26'0 0.0
2015-Feb-24 18:33N 54°38' W 008°26'0 0.0
2015-Feb-24 17:33N 54°38' W 008°26'0 0.0
2015-Feb-24 16:33N 54°38' W 008°26'0 0.0
2015-Feb-24 15:33N 54°38' W 008°26'0 0.0
2015-Feb-24 14:33N 54°38' W 008°26'0 0.0
2015-Feb-24 13:33N 54°38' W 008°26'0 0.0
2015-Feb-24 12:33N 54°38' W 008°26'0 0.0
2015-Feb-24 11:33N 54°38' W 008°26'0 0.0
2015-Feb-24 10:33N 54°38' W 008°26'0 0.0
2015-Feb-24 09:33N 54°38' W 008°26'0 0.0
2015-Feb-24 08:33N 54°38' W 008°26'0 0.0
2015-Feb-24 07:33N 54°38' W 008°26'0 0.0
2015-Feb-24 06:33N 54°38' W 008°26'0 0.0
2015-Feb-24 05:33N 54°38' W 008°26'0 0.0
2015-Feb-24 04:33N 54°38' W 008°26'0 0.0
2015-Feb-24 03:33N 54°38' W 008°26'0 0.0
2015-Feb-24 02:33N 54°38' W 008°26'0 0.0
2015-Feb-24 01:33N 54°38' W 008°26'0 0.0
2015-Feb-24 00:33N 54°38' W 008°26'0 0.0
2015-Feb-23 23:33N 54°38' W 008°26'0 0.0
2015-Feb-23 22:33N 54°38' W 008°26'0 0.0
2015-Feb-23 21:33N 54°38' W 008°26'0 0.0
2015-Feb-23 20:33N 54°38' W 008°26'0 0.0
2015-Feb-23 19:33N 54°38' W 008°26'0 0.0
2015-Feb-23 18:33N 54°38' W 008°26'0 0.0
2015-Feb-23 17:33N 54°38' W 008°26'0 0.0
2015-Feb-23 16:33N 54°38' W 008°26'0 0.0
2015-Feb-23 15:33N 54°38' W 008°26'0 0.0
2015-Feb-23 14:33N 54°38' W 008°26'0 0.0
2015-Feb-23 13:33N 54°38' W 008°26'0 0.0
2015-Feb-23 12:33N 54°38' W 008°26'0 0.0
2015-Feb-23 11:33N 54°38' W 008°26'0 0.0
2015-Feb-23 10:33N 54°38' W 008°26'0 0.0
2015-Feb-23 09:33N 54°38' W 008°26'0 0.0
2015-Feb-23 08:33N 54°38' W 008°26'0 0.0
2015-Feb-23 07:33N 54°38' W 008°26'5 4.6
2015-Feb-23 06:33N 54°35' W 008°32'  
2015-Feb-17 23:05N 54°36' W 008°38'510.4
2015-Feb-17 22:34N 54°36' W 008°29'2 2.4
2015-Feb-17 21:33N 54°38' W 008°26'0 0.1
2015-Feb-17 20:33N 54°38' W 008°26'0 0.0
2015-Feb-17 19:34N 54°38' W 008°26'0 0.0
2015-Feb-17 17:33N 54°38' W 008°26'0 0.0
2015-Feb-17 16:33N 54°38' W 008°26'0 0.0
2015-Feb-17 15:34N 54°38' W 008°26'0 0.0
2015-Feb-17 14:33N 54°38' W 008°26'0 0.0
2015-Feb-17 13:33N 54°38' W 008°26'0 0.0
2015-Feb-17 12:33N 54°38' W 008°26'0 0.0
2015-Feb-17 11:34N 54°38' W 008°26'0 0.0
2015-Feb-17 10:33N 54°38' W 008°26'0 0.0
2015-Feb-17 09:33N 54°38' W 008°26'0 0.0
2015-Feb-17 08:34N 54°38' W 008°26'0 0.0
2015-Feb-17 07:33N 54°38' W 008°26'0 0.0
2015-Feb-17 06:33N 54°38' W 008°26'0 0.0
2015-Feb-17 05:33N 54°38' W 008°26'0 0.0
2015-Feb-17 04:33N 54°38' W 008°26'0 0.0
2015-Feb-17 03:33N 54°38' W 008°26'0 0.0
2015-Feb-17 02:33N 54°38' W 008°26'0 0.0
2015-Feb-17 01:33N 54°38' W 008°26'0 0.0
2015-Feb-17 00:33N 54°38' W 008°26'0 0.0
2015-Feb-16 23:33N 54°38' W 008°26'0 0.0
2015-Feb-16 22:33N 54°38' W 008°26'0 0.0
2015-Feb-16 21:34N 54°38' W 008°26'0 0.0
2015-Feb-16 20:33N 54°38' W 008°26'0 0.0
2015-Feb-16 19:33N 54°38' W 008°26'0 0.0
2015-Feb-16 18:34N 54°38' W 008°26'0 0.0
2015-Feb-16 17:34N 54°38' W 008°26'0 0.0
2015-Feb-16 16:34N 54°38' W 008°26'0 0.0
2015-Feb-16 15:33N 54°38' W 008°26'0 0.0
2015-Feb-16 14:34N 54°38' W 008°26'0 0.0
2015-Feb-16 13:33N 54°38' W 008°26'0 0.0
2015-Feb-16 12:33N 54°38' W 008°26'0 0.0
2015-Feb-16 11:33N 54°38' W 008°26'0 0.0
2015-Feb-16 10:34N 54°38' W 008°26'0 0.0
2015-Feb-16 09:34N 54°38' W 008°26'0 0.0
2015-Feb-16 08:33N 54°38' W 008°26'0 0.1
2015-Feb-16 07:33N 54°38' W 008°26'6 5.8
2015-Feb-16 06:33N 54°34' W 008°35'  

Dump ship's entire track history